Time;durP1;ratioP1;P1;durP2;ratioP2;P2;SDS_P1;SDS_P2;PMS_P1;PMS_P2;Temp;Humidity;BMP_temperature;BMP_pressure;BME280_temperature;BME280_humidity;BME280_pressure;Samples;Min_cycle;Max_cycle;Signal;HPM_P1;HPM_P2
2021/07/09 00:01:50;;;;;;;7.47;6.63;;;;;;;18.91;82.82;100875.03;4901975;28;97874;-65
2021/07/09 00:04:16;;;;;;;7.60;6.90;;;;;;;18.92;82.65;100868.44;4877533;28;97713;-66
2021/07/09 00:06:43;;;;;;;8.30;7.13;;;;;;;18.93;82.93;100861.84;4911285;28;100588;-65
2021/07/09 00:09:09;;;;;;;8.25;7.47;;;;;;;18.95;82.57;100860.41;4897272;28;98714;-73
2021/07/09 00:11:38;;;;;;;8.85;7.80;;;;;;;18.85;83.01;100852.47;4899760;28;98111;-66
2021/07/09 00:14:07;;;;;;;10.77;8.63;;;;;;;18.81;82.94;100859.69;4894534;28;97851;-65
2021/07/09 00:16:33;;;;;;;9.23;8.32;;;;;;;18.80;83.25;100841.72;4901407;28;98845;-65
2021/07/09 00:19:02;;;;;;;9.23;8.43;;;;;;;18.80;83.43;100847.16;4912622;28;108118;-73
2021/07/09 00:21:28;;;;;;;9.93;8.95;;;;;;;18.77;83.55;100828.69;4920917;28;97847;-73
2021/07/09 00:23:54;;;;;;;10.02;9.05;;;;;;;18.73;83.34;100831.22;4900621;28;116107;-73
2021/07/09 00:26:20;;;;;;;11.02;9.38;;;;;;;18.72;83.72;100840.53;4901647;28;127550;-73
2021/07/09 00:28:46;;;;;;;10.27;9.23;;;;;;;18.74;83.59;100843.75;4901611;28;98031;-65
2021/07/09 00:31:12;;;;;;;9.95;9.02;;;;;;;18.78;83.61;100843.94;4916695;28;119730;-73
2021/07/09 00:33:39;;;;;;;10.20;9.27;;;;;;;18.76;83.87;100848.91;4919012;28;97918;-73
2021/07/09 00:36:05;;;;;;;9.68;8.82;;;;;;;18.82;83.68;100848.47;4921490;28;98285;-73
2021/07/09 00:38:31;;;;;;;9.65;8.75;;;;;;;18.80;84.04;100855.34;4907856;28;127318;-65
2021/07/09 00:40:58;;;;;;;10.10;9.10;;;;;;;18.82;83.90;100859.41;4920282;28;118520;-72
2021/07/09 00:43:24;;;;;;;11.40;8.82;;;;;;;18.85;83.90;100850.56;4920708;28;98223;-73
2021/07/09 00:45:50;;;;;;;10.68;9.60;;;;;;;18.87;84.36;100853.00;4920941;28;98860;-65
2021/07/09 00:48:16;;;;;;;9.18;8.27;;;;;;;18.88;83.98;100851.88;4920540;28;99094;-73
2021/07/09 00:50:42;;;;;;;9.15;7.90;;;;;;;18.95;83.73;100851.44;4910382;28;126326;-65
2021/07/09 00:53:08;;;;;;;8.80;8.10;;;;;;;18.93;83.70;100840.78;4919689;28;116422;-72
2021/07/09 00:55:34;;;;;;;10.05;8.65;;;;;;;18.97;83.78;100839.03;4918775;28;121480;-72
2021/07/09 00:58:01;;;;;;;9.48;8.68;;;;;;;18.99;83.82;100822.38;4900206;28;128248;-72
2021/07/09 01:00:28;;;;;;;9.20;8.30;;;;;;;19.03;83.76;100824.16;4908491;28;98529;-65
2021/07/09 01:02:54;;;;;;;8.73;7.93;;;;;;;19.03;83.84;100817.88;4901361;28;98527;-72
2021/07/09 01:05:20;;;;;;;8.93;8.20;;;;;;;19.03;83.64;100826.06;4902401;28;110637;-72
2021/07/09 01:07:47;;;;;;;10.85;8.15;;;;;;;19.08;83.54;100821.25;4879911;28;116935;-65
2021/07/09 01:10:15;;;;;;;9.18;8.43;;;;;;;19.02;83.62;100827.16;4915006;28;97885;-65
2021/07/09 01:12:41;;;;;;;9.07;8.27;;;;;;;19.04;83.81;100817.56;4923765;28;101291;-72
2021/07/09 01:15:10;;;;;;;8.60;7.80;;;;;;;18.98;83.99;100812.53;4914182;28;128004;-65
2021/07/09 01:17:37;;;;;;;8.38;7.57;;;;;;;19.04;83.89;100808.56;4902805;28;110197;-65
2021/07/09 01:20:05;;;;;;;7.88;7.18;;;;;;;19.03;83.98;100807.75;4904343;28;98399;-72
2021/07/09 01:22:31;;;;;;;8.05;7.35;;;;;;;19.03;83.78;100799.56;4904657;28;97790;-72
2021/07/09 01:24:57;;;;;;;8.50;7.45;;;;;;;19.04;83.96;100800.34;4886219;28;128544;-65
2021/07/09 01:27:23;;;;;;;8.52;7.75;;;;;;;19.03;84.26;100796.03;4902145;28;124184;-72
2021/07/09 01:29:49;;;;;;;7.93;7.22;;;;;;;19.04;84.15;100782.03;4903763;28;127729;-73
2021/07/09 01:32:15;;;;;;;7.85;7.03;;;;;;;19.02;83.84;100784.31;4921540;28;97751;-65
2021/07/09 01:34:42;;;;;;;8.63;7.70;;;;;;;18.99;84.25;100784.13;4921697;28;127991;-65
2021/07/09 01:37:18;;;;;;;8.15;7.47;;;;;;;18.91;84.02;100769.31;4905101;28;113654;-72
2021/07/09 01:39:45;;;;;;;8.93;8.13;;;;;;;18.92;84.30;100779.09;4904919;28;115368;-72
2021/07/09 01:42:12;;;;;;;9.10;8.20;;;;;;;18.89;84.38;100783.25;4921256;28;118375;-72
2021/07/09 01:44:38;;;;;;;9.25;7.63;;;;;;;18.91;84.21;100784.91;4917361;28;98420;-73
2021/07/09 01:47:05;;;;;;;9.25;8.35;;;;;;;18.89;84.30;100782.47;4900876;28;126859;-65
2021/07/09 01:49:32;;;;;;;9.13;8.23;;;;;;;18.82;84.42;100784.84;4903404;28;116692;-72
2021/07/09 01:51:58;;;;;;;10.32;9.30;;;;;;;18.81;84.25;100781.31;4904065;28;99758;-71
2021/07/09 01:54:24;;;;;;;9.95;9.15;;;;;;;18.76;84.43;100776.00;4901614;28;114441;-72
2021/07/09 01:56:50;;;;;;;10.07;9.07;;;;;;;18.76;84.59;100781.44;4885734;28;101074;-72
2021/07/09 01:59:16;;;;;;;11.05;10.02;;;;;;;18.68;84.87;100782.19;4885630;28;113191;-65
2021/07/09 02:01:42;;;;;;;11.85;9.73;;;;;;;18.67;84.45;100780.59;4903406;28;118226;-65
2021/07/09 02:04:08;;;;;;;11.65;10.55;;;;;;;18.60;84.64;100777.50;4888246;28;127995;-65
2021/07/09 02:06:34;;;;;;;10.63;9.52;;;;;;;18.67;85.16;100790.69;4901066;28;127750;-65
2021/07/09 02:09:00;;;;;;;11.85;10.73;;;;;;;18.62;85.02;100795.16;4918887;28;128028;-71
2021/07/09 02:11:26;;;;;;;12.55;11.35;;;;;;;18.57;85.68;100821.78;4887131;28;98267;-64
2021/07/09 02:13:52;;;;;;;11.13;10.02;;;;;;;18.63;85.52;100821.34;4884599;28;127690;-71
2021/07/09 02:16:19;;;;;;;12.15;10.90;;;;;;;18.65;85.73;100826.50;4902686;28;126460;-65
2021/07/09 02:18:46;;;;;;;10.82;9.82;;;;;;;18.71;85.57;100824.47;4902098;28;127628;-65
2021/07/09 02:21:13;;;;;;;11.80;10.68;;;;;;;18.66;85.73;100825.38;4889004;28;98396;-71
2021/07/09 02:23:39;;;;;;;12.02;10.93;;;;;;;18.71;85.53;100830.75;4904557;28;127654;-65
2021/07/09 02:26:05;;;;;;;12.23;11.02;;;;;;;18.73;85.40;100833.94;4907615;28;121026;-71
2021/07/09 02:28:31;;;;;;;11.68;10.60;;;;;;;18.74;85.31;100827.38;4889745;28;125523;-65
2021/07/09 02:30:57;;;;;;;11.57;10.57;;;;;;;18.76;85.54;100814.22;4904068;28;97986;-65
2021/07/09 02:33:24;;;;;;;11.75;10.55;;;;;;;18.78;85.28;100809.22;4904347;28;127478;-71
2021/07/09 02:35:50;;;;;;;12.80;10.55;;;;;;;18.78;85.06;100808.44;4912363;28;126896;-71
2021/07/09 02:38:16;;;;;;;11.70;10.68;;;;;;;18.75;85.33;100798.97;4911135;28;126318;-71
2021/07/09 02:40:43;;;;;;;11.35;10.25;;;;;;;18.77;85.22;100795.91;4893224;28;98292;-71
2021/07/09 02:43:09;;;;;;;11.90;10.80;;;;;;;18.70;85.70;100788.16;4917125;28;97989;-65
2021/07/09 02:45:36;;;;;;;12.85;11.05;;;;;;;18.74;85.77;100783.69;4908758;28;122129;-64
2021/07/09 02:48:02;;;;;;;13.30;12.00;;;;;;;18.75;85.86;100785.31;4891673;28;99146;-71
2021/07/09 02:50:28;;;;;;;13.68;12.38;;;;;;;18.77;85.88;100779.53;4889266;28;103351;-64
2021/07/09 02:52:54;;;;;;;13.02;11.73;;;;;;;18.70;86.02;100779.13;4904308;28;99718;-65
2021/07/09 02:55:20;;;;;;;12.82;11.50;;;;;;;18.74;85.57;100780.94;4893145;28;98678;-64
2021/07/09 02:57:46;;;;;;;13.32;12.02;;;;;;;18.71;85.78;100786.25;4914636;28;98099;-64
2021/07/09 03:00:15;;;;;;;12.98;11.77;;;;;;;18.71;85.97;100781.59;4914107;28;118144;-71
2021/07/09 03:02:41;;;;;;;13.73;12.43;;;;;;;18.73;86.28;100781.28;4904730;28;98567;-64
2021/07/09 03:05:09;;;;;;;13.38;12.18;;;;;;;18.72;86.10;100776.94;4911466;28;98377;-64
2021/07/09 03:07:35;;;;;;;13.38;12.18;;;;;;;18.73;86.12;100764.88;4907956;28;99339;-71
2021/07/09 03:10:02;;;;;;;13.65;12.40;;;;;;;18.72;85.91;100749.63;4911296;28;104028;-65
2021/07/09 03:12:29;;;;;;;14.52;13.20;;;;;;;18.64;86.22;100745.72;4901817;28;114956;-71
2021/07/09 03:14:55;;;;;;;15.40;13.95;;;;;;;18.61;86.25;100729.97;4889512;28;97907;-64
2021/07/09 03:17:21;;;;;;;13.95;12.63;;;;;;;18.61;86.45;100730.75;4909604;28;127190;-71
2021/07/09 03:19:47;;;;;;;14.65;13.25;;;;;;;18.60;86.29;100712.78;4913234;28;98129;-64
2021/07/09 03:22:16;;;;;;;16.40;14.90;;;;;;;18.50;86.57;100715.78;4903379;28;128157;-64
2021/07/09 03:24:42;;;;;;;16.52;15.02;;;;;;;18.51;86.86;100714.69;4908919;28;120326;-64
2021/07/09 03:27:08;;;;;;;15.65;14.07;;;;;;;18.49;86.87;100708.72;4910853;28;124684;-64
2021/07/09 03:29:34;;;;;;;15.65;14.25;;;;;;;18.48;87.00;100703.59;4900487;28;118563;-71
2021/07/09 03:32:00;;;;;;;14.90;13.60;;;;;;;18.49;87.09;100700.53;4911274;28;126873;-65
2021/07/09 03:34:27;;;;;;;16.38;14.88;;;;;;;18.45;87.36;100685.91;4895494;28;119372;-64
2021/07/09 03:36:53;;;;;;;17.00;15.43;;;;;;;18.44;87.38;100664.41;4912426;28;126881;-71
2021/07/09 03:39:19;;;;;;;14.60;13.27;;;;;;;18.43;87.47;100655.41;4897672;28;118144;-71
2021/07/09 03:41:45;;;;;;;14.45;13.20;;;;;;;18.44;87.47;100651.56;4889265;28;127246;-71
2021/07/09 03:44:11;;;;;;;14.25;13.05;;;;;;;18.42;87.22;100642.06;4902182;28;127153;-71
2021/07/09 03:46:38;;;;;;;14.40;13.00;;;;;;;18.35;87.51;100632.44;4912197;28;98034;-65
2021/07/09 03:49:05;;;;;;;13.85;12.63;;;;;;;18.33;87.56;100633.84;4905164;28;98124;-64
2021/07/09 03:51:31;;;;;;;13.23;11.95;;;;;;;18.35;87.63;100637.88;4918977;28;98510;-71
2021/07/09 03:53:58;;;;;;;11.65;10.55;;;;;;;18.40;87.46;100634.22;4911495;28;98489;-64
2021/07/09 03:56:28;;;;;;;12.02;11.02;;;;;;;18.31;87.41;100603.34;4904618;28;98358;-71
2021/07/09 03:58:55;;;;;;;13.43;12.18;;;;;;;18.17;87.93;100548.91;4915415;28;98095;-71
2021/07/09 04:01:21;;;;;;;14.07;12.77;;;;;;;18.11;88.49;100537.31;4885578;28;98517;-65
2021/07/09 04:03:47;;;;;;;12.85;11.73;;;;;;;18.10;88.87;100552.06;4901814;28;127636;-71
2021/07/09 04:06:13;;;;;;;13.65;12.45;;;;;;;18.11;88.48;100572.78;4899195;28;127240;-64
2021/07/09 04:08:39;;;;;;;12.75;11.65;;;;;;;18.17;88.46;100578.91;4903297;28;117317;-70
2021/07/09 04:11:05;;;;;;;12.60;11.30;;;;;;;18.15;88.27;100581.94;4910933;28;112811;-64
2021/07/09 04:13:31;;;;;;;12.02;10.98;;;;;;;18.25;88.23;100589.03;4893270;28;98450;-71
2021/07/09 04:15:57;;;;;;;12.20;11.05;;;;;;;18.24;88.07;100603.81;4892986;28;99742;-65
2021/07/09 04:18:23;;;;;;;12.00;10.80;;;;;;;18.32;87.73;100621.34;4879060;28;98058;-71
2021/07/09 04:20:49;;;;;;;12.32;11.23;;;;;;;18.30;87.87;100637.19;4907324;28;98391;-70
2021/07/09 04:23:15;;;;;;;12.88;11.77;;;;;;;18.36;87.56;100641.41;4899501;28;127863;-70
2021/07/09 04:25:41;;;;;;;12.45;11.35;;;;;;;18.42;87.55;100645.59;4908844;28;98086;-65
2021/07/09 04:28:07;;;;;;;12.70;11.50;;;;;;;18.47;87.18;100645.47;4903563;28;98053;-71
2021/07/09 04:30:34;;;;;;;13.30;12.10;;;;;;;18.46;87.31;100645.78;4907748;28;128090;-65
2021/07/09 04:33:00;;;;;;;12.82;11.73;;;;;;;18.51;87.14;100657.38;4912433;28;117601;-65
2021/07/09 04:35:26;;;;;;;13.02;11.85;;;;;;;18.45;87.67;100658.63;4901581;28;118970;-70
2021/07/09 04:37:52;;;;;;;12.07;10.98;;;;;;;18.48;87.23;100647.06;4902445;28;111939;-65
2021/07/09 04:40:18;;;;;;;13.00;11.80;;;;;;;18.43;87.27;100632.75;4883777;28;125693;-64
2021/07/09 04:42:44;;;;;;;13.52;12.23;;;;;;;18.46;87.50;100630.19;4902489;28;111601;-64
2021/07/09 04:45:11;;;;;;;13.05;11.85;;;;;;;18.36;87.40;100625.84;4892166;28;98284;-64
2021/07/09 04:47:37;;;;;;;13.20;12.00;;;;;;;18.43;87.46;100630.03;4907495;28;116366;-65
2021/07/09 04:50:04;;;;;;;14.18;12.77;;;;;;;18.43;87.35;100630.84;4904136;28;116406;-70
2021/07/09 04:52:30;;;;;;;15.10;13.70;;;;;;;18.47;87.14;100637.28;4913374;28;99302;-70
2021/07/09 04:54:56;;;;;;;13.65;12.45;;;;;;;18.47;87.40;100637.28;4912153;28;127379;-70
2021/07/09 04:57:22;;;;;;;13.30;12.10;;;;;;;18.46;87.23;100632.13;4907777;28;100251;-64
2021/07/09 04:59:49;;;;;;;13.88;12.57;;;;;;;18.45;87.15;100628.59;4914617;28;127354;-70
2021/07/09 05:02:15;;;;;;;13.40;12.18;;;;;;;18.46;87.28;100643.84;4882155;28;98161;-70
2021/07/09 05:04:41;;;;;;;14.75;13.25;;;;;;;18.45;87.07;100638.72;4907097;28;113667;-70
2021/07/09 05:07:07;;;;;;;14.07;12.77;;;;;;;18.59;87.26;100633.94;4905979;28;97767;-70
2021/07/09 05:09:33;;;;;;;13.95;12.57;;;;;;;18.60;86.80;100639.09;4910915;28;128501;-70
2021/07/09 05:11:59;;;;;;;13.70;12.32;;;;;;;18.60;86.66;100633.63;4905245;28;128475;-70
2021/07/09 05:14:27;;;;;;;13.40;12.10;;;;;;;18.71;86.81;100636.91;4909295;28;126383;-64
2021/07/09 05:16:54;;;;;;;13.82;12.52;;;;;;;18.79;86.36;100632.59;4918377;28;97792;-70
2021/07/09 05:19:20;;;;;;;13.27;12.07;;;;;;;18.74;85.89;100624.53;4907361;28;99930;-70
2021/07/09 05:21:46;;;;;;;13.80;12.43;;;;;;;18.75;86.28;100632.41;4917006;28;99067;-70
2021/07/09 05:24:13;;;;;;;14.35;13.00;;;;;;;18.82;86.06;100631.91;4913323;28;127204;-70
2021/07/09 05:26:39;;;;;;;16.20;14.68;;;;;;;18.79;86.33;100618.94;4902468;28;98315;-64
2021/07/09 05:29:06;;;;;;;14.15;12.85;;;;;;;18.85;86.11;100628.56;4887817;28;98638;-64
2021/07/09 05:31:35;;;;;;;15.63;14.10;;;;;;;18.78;86.11;100630.94;4910046;28;110156;-70
2021/07/09 05:34:01;;;;;;;14.57;13.25;;;;;;;18.84;86.03;100619.56;4881751;28;122086;-69
2021/07/09 05:36:28;;;;;;;14.32;13.05;;;;;;;18.83;85.82;100620.69;4911747;28;98148;-64
2021/07/09 05:38:54;;;;;;;14.55;13.02;;;;;;;18.83;86.25;100622.63;4917164;28;103797;-64
2021/07/09 05:41:20;;;;;;;15.07;13.68;;;;;;;18.89;85.74;100624.06;4914851;28;98337;-69
2021/07/09 05:43:46;;;;;;;15.32;13.93;;;;;;;18.85;86.04;100615.72;4896613;28;99074;-69
2021/07/09 05:46:12;;;;;;;16.00;14.50;;;;;;;18.84;85.65;100616.03;4911859;28;114174;-70
2021/07/09 05:48:38;;;;;;;16.55;14.95;;;;;;;18.82;86.12;100621.84;4904466;28;98334;-70
2021/07/09 05:51:04;;;;;;;17.50;15.90;;;;;;;18.77;86.26;100619.22;4910077;28;128186;-70
2021/07/09 05:53:31;;;;;;;17.33;15.73;;;;;;;18.80;85.80;100620.53;4880106;28;125525;-64
2021/07/09 05:55:57;;;;;;;17.98;16.23;;;;;;;18.89;86.02;100616.69;4899619;28;98359;-70
2021/07/09 05:58:24;;;;;;;16.95;15.30;;;;;;;18.93;85.49;100619.56;4890145;28;98216;-64
2021/07/09 06:00:50;;;;;;;18.42;16.48;;;;;;;18.92;85.38;100626.16;4915866;28;117230;-64
2021/07/09 06:03:16;;;;;;;18.60;16.70;;;;;;;19.01;85.50;100631.63;4919813;28;120580;-64
2021/07/09 06:05:42;;;;;;;19.13;17.23;;;;;;;19.11;85.11;100623.13;4905379;28;109128;-64
2021/07/09 06:08:09;;;;;;;19.80;17.90;;;;;;;19.26;84.40;100639.06;4904964;28;127757;-70
2021/07/09 06:10:35;;;;;;;19.40;17.40;;;;;;;19.17;85.10;100637.44;4916036;28;98143;-64
2021/07/09 06:13:03;;;;;;;20.52;18.33;;;;;;;19.31;84.40;100647.09;4902033;28;99929;-69
2021/07/09 06:15:29;;;;;;;20.40;18.30;;;;;;;19.25;84.78;100655.75;4903990;28;97843;-64
2021/07/09 06:17:55;;;;;;;20.30;18.30;;;;;;;19.07;85.53;100649.50;4904391;28;116351;-69
2021/07/09 06:20:21;;;;;;;20.73;18.70;;;;;;;19.11;85.03;100650.47;4904995;28;104852;-69
2021/07/09 06:22:47;;;;;;;21.63;19.45;;;;;;;19.24;84.70;100646.75;4914895;28;97849;-64
2021/07/09 06:25:14;;;;;;;23.55;21.15;;;;;;;19.31;84.51;100646.28;4919102;28;116555;-70
2021/07/09 06:27:40;;;;;;;21.75;19.52;;;;;;;19.35;84.62;100637.13;4906180;28;115954;-64
2021/07/09 06:30:07;;;;;;;23.55;21.17;;;;;;;19.38;84.57;100635.69;4919654;28;127424;-64
2021/07/09 06:32:33;;;;;;;22.58;20.38;;;;;;;19.59;83.74;100627.63;4920340;28;115232;-64
2021/07/09 06:34:59;;;;;;;22.45;20.25;;;;;;;19.48;84.10;100627.13;4904348;28;118052;-64
2021/07/09 06:37:25;;;;;;;21.17;19.17;;;;;;;19.61;83.71;100623.47;4903524;28;127865;-64
2021/07/09 06:39:51;;;;;;;21.77;19.55;;;;;;;19.87;82.48;100619.88;4904642;28;127451;-64
2021/07/09 06:42:18;;;;;;;21.05;18.88;;;;;;;19.94;82.29;100620.16;4911282;28;98421;-63
2021/07/09 06:44:44;;;;;;;19.15;17.35;;;;;;;19.77;83.72;100622.97;4912451;28;99450;-64
2021/07/09 06:47:10;;;;;;;19.92;17.95;;;;;;;19.83;83.21;100618.91;4918158;28;117289;-64
2021/07/09 06:49:36;;;;;;;19.40;17.55;;;;;;;19.95;83.31;100619.03;4910378;28;99786;-64
2021/07/09 06:52:03;;;;;;;19.38;17.60;;;;;;;19.88;82.37;100615.19;4903217;28;112279;-64
2021/07/09 06:54:29;;;;;;;20.25;18.35;;;;;;;19.94;82.19;100613.91;4912773;28;98068;-64
2021/07/09 06:56:55;;;;;;;19.35;17.55;;;;;;;19.97;81.60;100616.00;4903892;28;127185;-64
2021/07/09 06:59:21;;;;;;;20.83;18.88;;;;;;;20.01;82.14;100609.53;4902100;28;98683;-70
2021/07/09 07:01:47;;;;;;;18.90;17.08;;;;;;;20.13;81.66;100605.31;4909529;28;126452;-69
2021/07/09 07:04:14;;;;;;;19.30;17.50;;;;;;;20.13;81.52;100610.78;4902459;28;97908;-69
2021/07/09 07:06:41;;;;;;;19.13;17.20;;;;;;;20.23;81.20;100599.47;4923661;28;98890;-69
2021/07/09 07:09:07;;;;;;;19.65;17.75;;;;;;;20.14;81.91;100591.28;4905978;28;97996;-70
2021/07/09 07:11:33;;;;;;;18.02;16.20;;;;;;;20.05;81.82;100594.06;4903605;28;124908;-70
2021/07/09 07:13:59;;;;;;;18.15;16.30;;;;;;;20.11;81.96;100587.28;4900032;28;110039;-69
2021/07/09 07:16:25;;;;;;;18.05;16.20;;;;;;;20.24;81.60;100588.19;4887495;28;98731;-70
2021/07/09 07:18:51;;;;;;;15.68;14.20;;;;;;;20.58;80.13;100578.22;4920830;28;98317;-70
2021/07/09 07:21:17;;;;;;;14.98;13.52;;;;;;;20.78;79.11;100582.09;4909628;28;128182;-64
2021/07/09 07:23:43;;;;;;;14.25;12.90;;;;;;;20.66;78.61;100582.03;4888657;28;118313;-64
2021/07/09 07:26:09;;;;;;;15.20;13.73;;;;;;;21.11;78.09;100579.44;4899002;28;106259;-64
2021/07/09 07:28:35;;;;;;;14.68;13.27;;;;;;;21.45;76.39;100572.84;4908968;28;99037;-68
2021/07/09 07:31:01;;;;;;;13.38;12.27;;;;;;;22.27;73.55;100572.09;4913281;28;125950;-64
2021/07/09 07:33:27;;;;;;;12.77;11.52;;;;;;;22.96;71.03;100564.81;4905063;28;119063;-64
2021/07/09 07:35:53;;;;;;;12.27;11.07;;;;;;;22.26;72.50;100571.31;4899719;28;128758;-64
2021/07/09 07:38:20;;;;;;;11.43;10.52;;;;;;;22.86;71.30;100565.25;4900868;28;126694;-69
2021/07/09 07:40:46;;;;;;;10.80;9.68;;;;;;;24.53;65.39;100570.88;4902761;28;97785;-64
2021/07/09 07:43:12;;;;;;;10.95;9.95;;;;;;;23.68;68.50;100573.09;4903405;28;101821;-65
2021/07/09 07:45:38;;;;;;;10.52;9.63;;;;;;;23.98;66.68;100560.53;4917099;28;101593;-69
2021/07/09 07:48:04;;;;;;;10.23;9.30;;;;;;;24.00;66.24;100568.41;4918830;28;117938;-69
2021/07/09 07:50:30;;;;;;;9.85;8.95;;;;;;;26.46;58.73;100564.31;4917992;28;118137;-70
2021/07/09 07:52:56;;;;;;;8.13;7.47;;;;;;;25.86;59.03;100569.63;4913039;28;98020;-64
2021/07/09 07:55:23;;;;;;;8.40;7.70;;;;;;;25.74;61.10;100573.31;4898844;28;127337;-69
2021/07/09 07:57:49;;;;;;;7.75;7.13;;;;;;;25.31;60.62;100566.22;4915727;28;98720;-65
2021/07/09 08:00:15;;;;;;;8.70;7.97;;;;;;;25.32;60.39;100560.34;4866647;28;126003;-64
2021/07/09 08:02:42;;;;;;;7.53;6.93;;;;;;;23.47;65.86;100565.88;4884617;28;98339;-64
2021/07/09 08:05:09;;;;;;;8.45;7.75;;;;;;;23.59;66.64;100558.69;4899721;28;104574;-64
2021/07/09 08:07:35;;;;;;;7.63;7.03;;;;;;;23.24;67.46;100557.38;4904937;28;98833;-63
2021/07/09 08:10:01;;;;;;;8.40;7.60;;;;;;;22.51;69.84;100557.56;4901360;28;123442;-69
2021/07/09 08:12:27;;;;;;;7.57;6.90;;;;;;;21.95;70.96;100551.81;4911311;28;98779;-68
2021/07/09 08:14:53;;;;;;;7.85;7.10;;;;;;;21.83;72.79;100549.88;4903443;28;112055;-69
2021/07/09 08:17:19;;;;;;;8.05;7.35;;;;;;;21.75;73.62;100559.78;4900238;28;121625;-63
2021/07/09 08:19:46;;;;;;;8.80;8.00;;;;;;;21.30;74.59;100555.09;4917286;28;108800;-69
2021/07/09 08:22:12;;;;;;;8.57;7.78;;;;;;;21.01;75.53;100560.66;4907393;28;117221;-69
2021/07/09 08:24:38;;;;;;;9.02;8.18;;;;;;;20.74;77.26;100560.06;4908541;28;98166;-63
2021/07/09 08:27:04;;;;;;;10.23;9.32;;;;;;;20.56;78.78;100569.53;4901163;28;127917;-69
2021/07/09 08:29:30;;;;;;;10.85;9.95;;;;;;;20.49;79.70;100564.56;4883524;28;97810;-69
2021/07/09 08:31:57;;;;;;;11.07;10.07;;;;;;;20.72;79.15;100550.59;4916132;28;98387;-68
2021/07/09 08:34:23;;;;;;;10.50;9.60;;;;;;;20.76;78.61;100557.78;4897054;28;98242;-63
2021/07/09 08:36:49;;;;;;;11.98;10.90;;;;;;;20.84;78.30;100567.88;4921266;28;113610;-68
2021/07/09 08:39:16;;;;;;;11.18;10.27;;;;;;;20.71;78.83;100566.22;4899947;28;126431;-69
2021/07/09 08:41:48;;;;;;;11.15;10.15;;;;;;;20.82;79.13;100561.94;4900297;28;97874;-63
2021/07/09 08:44:14;;;;;;;10.48;9.68;;;;;;;20.97;77.81;100567.94;4899840;28;98713;-63
2021/07/09 08:46:41;;;;;;;11.38;10.48;;;;;;;20.90;77.68;100571.22;4909090;28;121153;-69
2021/07/09 08:49:14;;;;;;;12.50;11.30;;;;;;;20.93;78.60;100577.97;4907776;28;97831;-63
2021/07/09 08:51:40;;;;;;;12.75;11.65;;;;;;;20.98;77.87;100581.31;4909337;28;97919;-69
2021/07/09 08:54:15;;;;;;;12.32;11.32;;;;;;;21.01;78.61;100588.84;4920440;28;102536;-69
2021/07/09 08:56:41;;;;;;;9.38;8.57;;;;;;;21.10;77.87;100591.53;4901664;28;98206;-69
2021/07/09 08:59:07;;;;;;;8.70;8.00;;;;;;;21.25;76.72;100598.34;4899093;28;98438;-63
2021/07/09 09:01:53;;;;;;;7.95;7.35;;;;;;;21.26;76.33;100597.19;4898350;28;110232;-63
2021/07/09 09:04:30;;;;;;;7.57;6.97;;;;;;;21.53;75.98;100593.09;4905085;28;98326;-69
2021/07/09 09:07:11;;;;;;;7.85;7.20;;;;;;;21.86;73.88;100595.03;4915901;28;97965;-69
2021/07/09 09:09:39;;;;;;;7.45;6.85;;;;;;;22.38;71.90;100592.47;4920826;28;98446;-63
2021/07/09 09:12:14;;;;;;;7.38;6.68;;;;;;;22.49;69.86;100595.56;4921559;28;97829;-64
2021/07/09 09:14:51;;;;;;;7.05;6.45;;;;;;;25.71;62.56;100585.13;4920067;28;98311;-64
2021/07/09 09:17:35;;;;;;;6.40;5.90;;;;;;;29.19;52.44;100599.72;4920060;28;98968;-64
2021/07/09 09:20:18;;;;;;;5.82;5.32;;;;;;;29.13;51.32;100603.28;4913421;28;98596;-64
2021/07/09 09:22:50;;;;;;;5.57;5.18;;;;;;;29.15;50.82;100607.22;4899879;28;98117;-69
2021/07/09 09:25:23;;;;;;;5.72;5.25;;;;;;;27.37;53.45;100598.28;4910779;28;98180;-69
2021/07/09 09:28:04;;;;;;;5.45;5.05;;;;;;;25.82;57.59;100591.66;4900584;28;98358;-63
2021/07/09 09:30:30;;;;;;;5.55;5.15;;;;;;;25.40;59.05;100581.41;4902215;28;98000;-63
2021/07/09 09:32:58;;;;;;;6.07;5.53;;;;;;;24.66;60.95;100581.41;4895846;28;107324;-63
2021/07/09 09:35:29;;;;;;;6.00;5.55;;;;;;;24.77;59.54;100576.16;4888869;28;101717;-63
2021/07/09 09:37:58;;;;;;;6.20;5.72;;;;;;;25.59;59.67;100565.97;4901933;28;115355;-68
2021/07/09 09:40:26;;;;;;;5.40;4.90;;;;;;;27.45;52.90;100563.19;4904309;28;98164;-69
2021/07/09 09:42:52;;;;;;;5.88;5.32;;;;;;;26.87;54.38;100568.00;4908769;28;99777;-63
2021/07/09 09:45:20;;;;;;;5.07;4.57;;;;;;;28.99;49.76;100565.97;4922509;28;98419;-69
2021/07/09 09:47:47;;;;;;;5.32;4.93;;;;;;;28.08;51.19;100567.75;4923372;28;98770;-68
2021/07/09 09:50:20;;;;;;;5.00;4.60;;;;;;;25.70;56.14;100569.72;4914762;28;119943;-63
2021/07/09 09:52:51;;;;;;;5.50;5.10;;;;;;;24.22;60.68;100561.47;4906173;28;99693;-68
2021/07/09 09:55:31;;;;;;;6.27;5.77;;;;;;;24.03;61.40;100550.41;4923082;28;98201;-63
2021/07/09 09:58:18;;;;;;;6.40;5.90;;;;;;;23.95;62.30;100539.22;4923700;28;98315;-68
2021/07/09 10:00:49;;;;;;;5.90;5.40;;;;;;;24.01;62.52;100542.47;4922581;28;98733;-68
2021/07/09 10:03:15;;;;;;;5.50;5.10;;;;;;;25.87;58.08;100544.41;4922938;28;97765;-63
2021/07/09 10:05:48;;;;;;;6.28;5.78;;;;;;;24.51;61.88;100542.88;4922354;28;123113;-63
2021/07/09 10:08:19;;;;;;;6.78;6.18;;;;;;;23.80;64.04;100544.72;4905047;28;104851;-68
2021/07/09 10:10:46;;;;;;;6.40;5.90;;;;;;;23.84;64.88;100538.13;4922825;28;98306;-63
2021/07/09 10:13:18;;;;;;;6.75;6.15;;;;;;;23.66;64.55;100545.97;4923830;28;97969;-63
2021/07/09 10:15:47;;;;;;;7.53;6.93;;;;;;;22.91;66.30;100540.31;4904855;28;97943;-67
2021/07/09 10:18:14;;;;;;;7.70;7.10;;;;;;;23.82;63.97;100543.22;4903357;28;97968;-68
2021/07/09 10:20:44;;;;;;;6.63;6.10;;;;;;;24.74;61.39;100532.75;4903657;28;98138;-68
2021/07/09 10:23:13;;;;;;;5.88;5.47;;;;;;;24.87;60.97;100528.69;4920970;28;98006;-63
2021/07/09 10:25:39;;;;;;;6.25;5.85;;;;;;;25.29;59.79;100538.22;4920566;28;117189;-63
2021/07/09 10:28:06;;;;;;;7.20;6.57;;;;;;;26.31;57.30;100545.88;4919967;28;106220;-63
2021/07/09 10:30:40;;;;;;;6.55;6.00;;;;;;;26.95;56.37;100541.25;4922785;28;98570;-68
2021/07/09 10:33:25;;;;;;;7.45;6.78;;;;;;;26.66;56.07;100535.38;4923145;28;98049;-63
2021/07/09 10:35:51;;;;;;;6.53;6.03;;;;;;;26.99;56.18;100522.72;4912999;28;99350;-63
2021/07/09 10:38:19;;;;;;;7.22;6.55;;;;;;;25.97;57.67;100526.44;4899823;28;126524;-68
2021/07/09 10:40:46;;;;;;;5.93;5.53;;;;;;;25.90;57.45;100515.28;4920328;28;97854;-68
2021/07/09 10:43:13;;;;;;;6.53;6.03;;;;;;;25.86;57.37;100504.19;4905257;28;98020;-63
2021/07/09 10:45:40;;;;;;;5.93;5.43;;;;;;;25.05;62.14;100495.19;4902260;28;122621;-68
2021/07/09 10:48:17;;;;;;;5.03;4.63;;;;;;;28.08;52.71;100496.50;4902888;28;98047;-63
2021/07/09 10:50:47;;;;;;;4.53;4.20;;;;;;;29.39;50.16;100496.69;4902889;28;98102;-64
2021/07/09 10:53:13;;;;;;;5.20;4.80;;;;;;;29.32;48.41;100503.03;4902972;28;97887;-64
2021/07/09 10:55:46;;;;;;;5.55;5.05;;;;;;;29.57;46.36;100503.88;4903370;28;98446;-63
2021/07/09 10:58:26;;;;;;;4.68;4.28;;;;;;;29.78;46.04;100485.63;4902849;28;98453;-64
2021/07/09 11:00:55;;;;;;;4.10;3.60;;;;;;;30.73;45.06;100481.09;4903287;28;98540;-68
2021/07/09 11:03:35;;;;;;;3.83;3.53;;;;;;;29.92;44.54;100490.41;4902382;28;97940;-63
2021/07/09 11:06:04;;;;;;;3.60;3.40;;;;;;;30.10;45.86;100491.13;4903678;28;98700;-67
2021/07/09 11:08:33;;;;;;;3.90;3.70;;;;;;;30.26;45.65;100490.75;4902221;28;98485;-64
2021/07/09 11:11:12;;;;;;;3.50;3.20;;;;;;;31.52;44.06;100489.78;4908769;28;97859;-67
2021/07/09 11:13:44;;;;;;;4.43;4.13;;;;;;;30.03;44.78;100496.72;4922998;28;98070;-68